WIMM

Kualanamu International Airport

Airport
ICAO code
WIMM
IATA Code
KNO
Summary
ICAO Region
APAC
ICAO Territory
Location

Deli Serdang, Sumatra

Serving
Medan
Elevation
23 ft
Coordinates
3° 37' 52" N , 98° 52' 30" E
KCC
Metar
WIMM 271100Z 05009KT 8000 FEW017 29/25 Q1007 NOSIG

International Airport serving the city of Medan, Indonesia, about 26 km east of the city.

Climatology

Tropical Rainforest climate (Köppen climate classification Af)

SKYbrary Partners:

Safety knowledge contributed by: